MWF weather

Maewo-Naone Airport
Maewo Island, Penama, Vanuatu

Public forecast

Using degrees Celsius for public forecast. Weather courtesy of forecast.io.

Closest aviation weather report (METAR) to Maewo-Naone Airport

Closest report is Longana Airport, 19.6 nm (36.3 km) SSW. Retrieved 2019/12/07 18:00 UTC (40 minutes ago):

NVSG 071800Z AUTO 33001KT //// // NCD ///// Q1013

Closest aviation forecast (TAF) to Maewo-Naone Airport

Closest forecast is Longana Airport, 19.6 nm (36.3 km) SSW. Retrieved 2019/12/07 18:18 UTC (22 minutes ago):

TAF NVSG 071600Z 0718/0818 VRB02KT 9999 SCT020 OVC040 INTER 0718/0724 8000 SHRA FEW008 BKN018